Time;durP1;ratioP1;P1;durP2;ratioP2;P2;SDS_P1;SDS_P2;PMS_P1;PMS_P2;Temp;Humidity;BMP_temperature;BMP_pressure;BME280_temperature;BME280_humidity;BME280_pressure;Samples;Min_cycle;Max_cycle;Signal;HPM_P1;HPM_P2
2022/03/10 00:00:33;;;;;;;;;;;4.10;48.40;;;;;;5030303;28;20354;-73
2022/03/10 00:02:59;;;;;;;;;;;4.00;48.30;;;;;;5029836;28;19924;-72
2022/03/10 00:05:26;;;;;;;;;;;4.00;48.60;;;;;;5031713;28;20016;-72
2022/03/10 00:07:53;;;;;;;;;;;4.00;48.70;;;;;;5030070;28;20031;-72
2022/03/10 00:10:19;;;;;;;;;;;4.00;48.90;;;;;;5031520;28;20012;-72
2022/03/10 00:12:49;;;;;;;;;;;4.00;48.90;;;;;;5029100;28;19925;-73
2022/03/10 00:15:19;;;;;;;;;;;3.90;49.00;;;;;;5030315;28;19926;-73
2022/03/10 00:17:45;;;;;;;;;;;3.90;49.30;;;;;;5029078;28;19925;-72
2022/03/10 00:20:12;;;;;;;;;;;3.90;49.50;;;;;;5030427;28;20039;-72
2022/03/10 00:22:46;;;;;;;;;;;4.00;49.60;;;;;;5029279;28;20376;-73
2022/03/10 00:25:13;;;;;;;;;;;4.00;49.80;;;;;;5032095;28;19932;-73
2022/03/10 00:27:39;;;;;;;;;;;4.00;49.80;;;;;;5030198;28;19964;-73
2022/03/10 00:30:07;;;;;;;;;;;4.10;50.00;;;;;;5031444;28;19947;-73
2022/03/10 00:32:41;;;;;;;;;;;4.30;50.00;;;;;;5030822;28;19925;-72
2022/03/10 00:35:08;;;;;;;;;;;4.30;49.60;;;;;;5031717;28;19925;-73
2022/03/10 00:37:34;;;;;;;;;;;4.20;49.40;;;;;;5031968;28;19931;-72
2022/03/10 00:40:01;;;;;;;;;;;4.20;49.80;;;;;;5031232;28;19929;-72
2022/03/10 00:42:27;;;;;;;;;;;4.20;49.60;;;;;;5025555;28;19931;-72
2022/03/10 00:44:54;;;;;;;;;;;4.20;49.60;;;;;;5030546;28;19925;-72
2022/03/10 00:47:21;;;;;;;;;;;4.30;49.90;;;;;;5030357;28;19929;-72
2022/03/10 00:49:49;;;;;;;;;;;4.20;50.00;;;;;;5031089;28;20309;-72
2022/03/10 00:52:15;;;;;;;;;;;4.20;49.80;;;;;;5029725;28;20369;-72
2022/03/10 00:54:42;;;;;;;;;;;4.10;49.80;;;;;;5030885;28;20019;-72
2022/03/10 00:57:10;;;;;;;;;;;4.20;50.40;;;;;;5026731;28;20008;-74
2022/03/10 00:59:37;;;;;;;;;;;4.10;50.70;;;;;;5029632;28;19925;-72
2022/03/10 01:02:04;;;;;;;;;;;4.00;50.90;;;;;;5025590;28;20008;-72
2022/03/10 01:04:30;;;;;;;;;;;4.00;50.80;;;;;;5030878;28;19925;-72
2022/03/10 01:06:58;;;;;;;;;;;4.00;51.20;;;;;;5032027;28;20008;-72
2022/03/10 01:09:26;;;;;;;;;;;3.90;51.50;;;;;;5031897;28;19925;-73
2022/03/10 01:11:53;;;;;;;;;;;3.90;51.70;;;;;;5022063;28;20035;-72
2022/03/10 01:14:23;;;;;;;;;;;3.90;52.20;;;;;;5030851;28;19925;-72
2022/03/10 01:16:49;;;;;;;;;;;3.90;52.10;;;;;;5030566;28;20453;-73
2022/03/10 01:19:16;;;;;;;;;;;3.90;52.40;;;;;;5030442;28;20018;-73
2022/03/10 01:21:43;;;;;;;;;;;4.00;52.50;;;;;;5026832;28;20319;-73
2022/03/10 01:24:12;;;;;;;;;;;4.00;52.30;;;;;;5031271;28;19947;-72
2022/03/10 01:26:38;;;;;;;;;;;4.00;52.50;;;;;;5032722;28;19968;-72
2022/03/10 01:29:05;;;;;;;;;;;4.10;52.50;;;;;;5031216;28;19925;-73
2022/03/10 01:31:32;;;;;;;;;;;4.10;52.50;;;;;;5025495;28;20410;-72
2022/03/10 01:33:59;;;;;;;;;;;4.10;52.80;;;;;;5027686;28;19925;-72
2022/03/10 01:36:26;;;;;;;;;;;4.10;52.60;;;;;;5029194;28;20027;-72
2022/03/10 01:38:53;;;;;;;;;;;4.00;52.70;;;;;;5030027;28;19928;-72
2022/03/10 01:41:21;;;;;;;;;;;4.00;52.90;;;;;;5028021;28;20012;-73
2022/03/10 01:43:57;;;;;;;;;;;3.90;53.00;;;;;;5028315;28;19925;-72
2022/03/10 01:46:23;;;;;;;;;;;3.90;53.40;;;;;;5027803;28;19929;-76
2022/03/10 01:48:50;;;;;;;;;;;3.90;53.80;;;;;;5031227;28;19925;-73
2022/03/10 01:51:17;;;;;;;;;;;4.00;53.90;;;;;;5032559;28;19929;-74
2022/03/10 01:53:44;;;;;;;;;;;4.00;53.80;;;;;;5030397;28;20372;-72
2022/03/10 01:56:11;;;;;;;;;;;4.00;53.80;;;;;;5028484;28;19925;-72
2022/03/10 01:58:40;;;;;;;;;;;4.00;54.00;;;;;;5029399;28;19931;-73
2022/03/10 02:01:08;;;;;;;;;;;3.90;54.10;;;;;;5028641;28;19949;-73
2022/03/10 02:03:35;;;;;;;;;;;3.80;54.40;;;;;;5029599;28;19925;-73
2022/03/10 02:06:02;;;;;;;;;;;3.80;54.60;;;;;;5028730;28;19929;-73
2022/03/10 02:11:12;;;;;;;;;;;3.80;55.20;;;;;;5028624;28;20003;-72
2022/03/10 02:13:40;;;;;;;;;;;3.80;55.60;;;;;;5032954;28;20265;-72
2022/03/10 02:18:54;;;;;;;;;;;3.80;56.00;;;;;;5021491;28;20415;-71
2022/03/10 02:21:20;;;;;;;;;;;3.80;56.10;;;;;;5032232;28;19931;-72
2022/03/10 02:23:48;;;;;;;;;;;3.80;56.50;;;;;;5033082;28;19925;-72
2022/03/10 02:26:15;;;;;;;;;;;3.80;56.60;;;;;;5033640;28;20391;-73
2022/03/10 02:28:42;;;;;;;;;;;3.80;56.70;;;;;;5032327;28;19925;-73
2022/03/10 02:31:09;;;;;;;;;;;3.80;56.90;;;;;;5033374;28;20023;-72
2022/03/10 02:33:36;;;;;;;;;;;3.70;57.00;;;;;;5033375;28;20302;-73
2022/03/10 02:36:02;;;;;;;;;;;3.60;57.40;;;;;;5033705;28;20303;-72
2022/03/10 02:38:29;;;;;;;;;;;3.60;57.80;;;;;;5033483;28;19932;-72
2022/03/10 02:40:58;;;;;;;;;;;3.50;58.20;;;;;;5032549;28;19929;-72
2022/03/10 02:43:24;;;;;;;;;;;3.40;58.60;;;;;;5032433;28;19932;-73
2022/03/10 02:45:51;;;;;;;;;;;3.50;59.20;;;;;;5027700;28;19931;-73
2022/03/10 02:48:19;;;;;;;;;;;3.40;59.50;;;;;;5032996;28;19925;-73
2022/03/10 02:50:46;;;;;;;;;;;3.30;60.20;;;;;;5027899;28;19925;-73
2022/03/10 02:53:15;;;;;;;;;;;3.30;60.80;;;;;;5032962;28;19957;-73
2022/03/10 02:55:44;;;;;;;;;;;3.30;61.30;;;;;;5032868;28;19929;-73
2022/03/10 02:58:12;;;;;;;;;;;3.30;62.00;;;;;;5034703;28;20019;-73
2022/03/10 03:00:38;;;;;;;;;;;3.20;62.80;;;;;;5034231;28;19925;-73
2022/03/10 03:03:05;;;;;;;;;;;3.20;63.00;;;;;;5034594;28;19925;-74
2022/03/10 03:05:32;;;;;;;;;;;3.10;63.90;;;;;;5036849;28;19925;-73
2022/03/10 03:07:59;;;;;;;;;;;3.00;65.10;;;;;;5035185;28;19925;-72
2022/03/10 03:10:26;;;;;;;;;;;2.90;65.90;;;;;;5034830;28;19929;-73
2022/03/10 03:12:52;;;;;;;;;;;2.90;67.20;;;;;;5031830;28;20008;-73
2022/03/10 03:15:20;;;;;;;;;;;2.80;68.00;;;;;;5032707;28;19925;-73
2022/03/10 03:17:48;;;;;;;;;;;2.80;69.40;;;;;;5030612;28;20030;-72
2022/03/10 03:20:15;;;;;;;;;;;2.80;70.50;;;;;;5033507;28;19925;-73
2022/03/10 03:22:42;;;;;;;;;;;2.80;71.50;;;;;;5032196;28;19925;-72
2022/03/10 03:25:10;;;;;;;;;;;2.80;72.10;;;;;;5031142;28;20414;-73
2022/03/10 03:27:36;;;;;;;;;;;2.80;72.90;;;;;;5030393;28;19932;-72
2022/03/10 03:30:04;;;;;;;;;;;2.70;74.00;;;;;;5034232;28;20028;-72
2022/03/10 03:32:32;;;;;;;;;;;2.70;74.50;;;;;;5034564;28;20408;-72
2022/03/10 03:34:59;;;;;;;;;;;2.70;75.60;;;;;;5032525;28;19925;-73
2022/03/10 03:37:26;;;;;;;;;;;2.60;75.80;;;;;;5032509;28;20016;-73
2022/03/10 03:39:52;;;;;;;;;;;2.70;77.00;;;;;;5032150;28;19928;-72
2022/03/10 03:42:19;;;;;;;;;;;2.70;77.10;;;;;;5035464;28;19932;-73
2022/03/10 03:44:45;;;;;;;;;;;2.70;77.40;;;;;;5037347;28;19925;-73
2022/03/10 03:47:12;;;;;;;;;;;2.70;77.70;;;;;;5033699;28;19937;-73
2022/03/10 03:49:40;;;;;;;;;;;2.60;78.00;;;;;;5031525;28;20003;-73
2022/03/10 03:52:07;;;;;;;;;;;2.60;79.00;;;;;;5024687;28;19925;-72
2022/03/10 03:54:33;;;;;;;;;;;2.50;80.10;;;;;;5034342;28;20438;-73
2022/03/10 03:57:00;;;;;;;;;;;2.50;80.30;;;;;;5030171;28;20403;-73
2022/03/10 03:59:27;;;;;;;;;;;2.50;80.80;;;;;;5034037;28;19925;-73
2022/03/10 04:01:53;;;;;;;;;;;2.30;80.80;;;;;;5032774;28;20008;-73
2022/03/10 04:04:22;;;;;;;;;;;2.20;82.20;;;;;;5029764;28;19940;-72
2022/03/10 04:06:50;;;;;;;;;;;2.10;85.00;;;;;;5029876;28;20420;-72
2022/03/10 04:09:17;;;;;;;;;;;2.00;88.10;;;;;;5031425;28;20380;-73
2022/03/10 04:11:44;;;;;;;;;;;2.00;89.40;;;;;;5028654;28;20450;-73
2022/03/10 04:14:11;;;;;;;;;;;2.10;90.40;;;;;;5031208;28;20372;-73
2022/03/10 04:16:38;;;;;;;;;;;2.10;90.80;;;;;;5029605;28;19932;-73
2022/03/10 04:19:05;;;;;;;;;;;2.20;91.10;;;;;;5031326;28;20023;-73
2022/03/10 04:21:32;;;;;;;;;;;2.10;91.00;;;;;;5027856;28;20007;-72
2022/03/10 04:24:00;;;;;;;;;;;1.90;90.90;;;;;;5031172;28;19929;-73
2022/03/10 04:26:26;;;;;;;;;;;1.80;91.30;;;;;;5028857;28;19925;-73
2022/03/10 04:28:53;;;;;;;;;;;1.80;91.60;;;;;;5030117;28;20024;-73
2022/03/10 04:31:20;;;;;;;;;;;1.60;92.20;;;;;;5030182;28;19933;-73
2022/03/10 04:33:46;;;;;;;;;;;1.50;92.90;;;;;;5030552;28;19929;-73
2022/03/10 04:36:13;;;;;;;;;;;1.30;94.80;;;;;;5029302;28;20020;-73
2022/03/10 04:38:40;;;;;;;;;;;1.20;96.50;;;;;;5032523;28;20396;-74
2022/03/10 04:41:08;;;;;;;;;;;1.20;98.10;;;;;;5030162;28;20400;-73
2022/03/10 04:43:34;;;;;;;;;;;1.30;99.70;;;;;;5031756;28;19931;-73
2022/03/10 04:46:03;;;;;;;;;;;1.30;99.90;;;;;;5029416;28;20013;-73
2022/03/10 04:48:30;;;;;;;;;;;1.30;99.90;;;;;;5029920;28;20447;-73
2022/03/10 04:50:56;;;;;;;;;;;1.40;99.90;;;;;;5028913;28;20485;-73
2022/03/10 04:53:23;;;;;;;;;;;1.40;99.90;;;;;;5030332;28;20311;-73
2022/03/10 04:55:50;;;;;;;;;;;1.40;99.90;;;;;;5030900;28;20399;-73
2022/03/10 04:58:18;;;;;;;;;;;1.30;99.90;;;;;;5026955;28;20016;-73
2022/03/10 05:00:44;;;;;;;;;;;1.40;99.90;;;;;;5028618;28;19932;-73
2022/03/10 05:03:13;;;;;;;;;;;1.30;99.90;;;;;;5030499;28;19932;-73
2022/03/10 05:05:39;;;;;;;;;;;1.30;99.90;;;;;;5029571;28;19925;-73
2022/03/10 05:08:06;;;;;;;;;;;1.40;99.90;;;;;;5030322;28;19925;-73
2022/03/10 05:10:32;;;;;;;;;;;1.60;99.90;;;;;;5031854;28;19929;-72
2022/03/10 05:13:00;;;;;;;;;;;1.80;99.90;;;;;;5027729;28;19925;-73
2022/03/10 05:15:31;;;;;;;;;;;1.70;99.90;;;;;;5030992;28;19968;-73
2022/03/10 05:17:57;;;;;;;;;;;1.80;99.90;;;;;;5028682;28;20012;-73
2022/03/10 05:20:25;;;;;;;;;;;1.80;99.90;;;;;;5031151;28;19971;-74
2022/03/10 05:22:52;;;;;;;;;;;1.90;99.90;;;;;;5028253;28;19929;-75
2022/03/10 05:25:19;;;;;;;;;;;1.90;99.90;;;;;;5027079;28;20019;-74
2022/03/10 05:27:46;;;;;;;;;;;1.90;99.90;;;;;;5028501;28;19925;-71
2022/03/10 05:30:14;;;;;;;;;;;2.00;99.90;;;;;;5029830;28;19935;-71
2022/03/10 05:32:42;;;;;;;;;;;2.00;99.90;;;;;;5028299;28;19925;-71
2022/03/10 05:35:14;;;;;;;;;;;2.10;99.90;;;;;;5029787;28;19925;-71
2022/03/10 05:37:41;;;;;;;;;;;2.00;99.90;;;;;;5028462;28;19925;-70
2022/03/10 05:40:08;;;;;;;;;;;2.00;99.90;;;;;;5031594;28;19932;-71
2022/03/10 05:42:37;;;;;;;;;;;1.90;99.90;;;;;;5029783;28;19925;-71
2022/03/10 05:45:04;;;;;;;;;;;1.90;99.90;;;;;;5028753;28;19929;-71
2022/03/10 05:47:31;;;;;;;;;;;1.90;99.90;;;;;;5028423;28;19971;-70
2022/03/10 05:49:59;;;;;;;;;;;1.90;99.90;;;;;;5023757;28;20398;-71
2022/03/10 05:52:26;;;;;;;;;;;1.80;99.90;;;;;;5029027;28;19925;-71
2022/03/10 05:54:52;;;;;;;;;;;1.80;99.90;;;;;;5026444;28;19929;-70
2022/03/10 05:57:19;;;;;;;;;;;1.90;99.90;;;;;;5024294;28;19925;-71
2022/03/10 05:59:46;;;;;;;;;;;1.80;99.90;;;;;;5027468;28;20303;-71
2022/03/10 06:02:13;;;;;;;;;;;1.80;99.90;;;;;;5026600;28;20373;-71
2022/03/10 06:04:40;;;;;;;;;;;1.80;99.90;;;;;;5025201;28;20407;-70
2022/03/10 06:07:08;;;;;;;;;;;1.80;99.90;;;;;;5028538;28;19925;-71
2022/03/10 06:09:35;;;;;;;;;;;1.90;99.90;;;;;;5028178;28;19943;-71
2022/03/10 06:12:01;;;;;;;;;;;1.90;99.90;;;;;;5026757;28;19925;-70
2022/03/10 06:14:28;;;;;;;;;;;1.80;99.90;;;;;;5029880;28;19933;-70
2022/03/10 06:16:55;;;;;;;;;;;1.80;99.90;;;;;;5021032;28;19968;-70
2022/03/10 06:19:22;;;;;;;;;;;1.80;99.90;;;;;;5021333;28;19925;-71
2022/03/10 06:21:48;;;;;;;;;;;1.80;99.90;;;;;;5025727;28;19925;-71
2022/03/10 06:24:16;;;;;;;;;;;1.80;99.90;;;;;;5030312;28;19931;-71
2022/03/10 06:26:43;;;;;;;;;;;1.80;99.90;;;;;;5027420;28;19932;-70
2022/03/10 06:29:12;;;;;;;;;;;1.80;99.90;;;;;;5027288;28;19925;-71
2022/03/10 06:31:39;;;;;;;;;;;1.90;99.90;;;;;;5026744;28;20404;-71
2022/03/10 06:34:06;;;;;;;;;;;2.00;99.90;;;;;;5030100;28;19979;-69
2022/03/10 06:36:33;;;;;;;;;;;2.00;99.90;;;;;;5031360;28;19925;-73
2022/03/10 06:39:00;;;;;;;;;;;2.10;99.90;;;;;;5035167;28;19925;-71
2022/03/10 06:41:28;;;;;;;;;;;2.00;99.90;;;;;;5030451;28;20270;-74
2022/03/10 06:43:54;;;;;;;;;;;2.10;99.90;;;;;;5032370;28;20028;-73
2022/03/10 06:46:21;;;;;;;;;;;2.20;99.90;;;;;;5027483;28;19925;-70
2022/03/10 06:48:51;;;;;;;;;;;2.20;99.90;;;;;;5028960;28;19947;-69
2022/03/10 06:51:18;;;;;;;;;;;2.20;99.90;;;;;;5028407;28;19925;-69
2022/03/10 06:53:44;;;;;;;;;;;2.30;99.90;;;;;;5027798;28;20016;-70
2022/03/10 06:56:11;;;;;;;;;;;2.40;99.90;;;;;;5026642;28;19931;-70
2022/03/10 06:58:40;;;;;;;;;;;2.60;99.90;;;;;;5028363;28;19932;-70
2022/03/10 07:01:06;;;;;;;;;;;2.70;99.90;;;;;;5030430;28;19933;-70
2022/03/10 07:03:33;;;;;;;;;;;2.70;99.90;;;;;;5029975;28;19931;-70
2022/03/10 07:06:00;;;;;;;;;;;2.80;99.90;;;;;;5031114;28;20053;-70
2022/03/10 07:08:27;;;;;;;;;;;2.90;99.90;;;;;;5031970;28;19929;-69
2022/03/10 07:10:53;;;;;;;;;;;3.00;99.90;;;;;;5026492;28;20016;-70
2022/03/10 07:13:20;;;;;;;;;;;3.00;99.90;;;;;;5031595;28;20760;-70
2022/03/10 07:15:48;;;;;;;;;;;3.20;99.90;;;;;;5031875;28;19932;-70
2022/03/10 07:18:15;;;;;;;;;;;3.30;99.90;;;;;;5031177;28;20015;-71
2022/03/10 07:20:41;;;;;;;;;;;3.30;99.90;;;;;;5026720;28;20631;-70
2022/03/10 07:23:08;;;;;;;;;;;3.40;99.60;;;;;;5031763;28;20011;-71
2022/03/10 07:25:35;;;;;;;;;;;3.50;99.40;;;;;;5032189;28;20110;-71
2022/03/10 07:28:02;;;;;;;;;;;3.50;99.10;;;;;;5032219;28;19972;-70
2022/03/10 07:30:28;;;;;;;;;;;3.70;99.00;;;;;;5030932;28;19943;-71
2022/03/10 07:32:56;;;;;;;;;;;3.90;98.80;;;;;;5028720;28;19933;-70
2022/03/10 07:35:23;;;;;;;;;;;3.90;98.60;;;;;;5028175;28;19933;-70
2022/03/10 07:37:51;;;;;;;;;;;4.10;98.30;;;;;;5030581;28;19925;-70
2022/03/10 07:40:18;;;;;;;;;;;4.20;98.10;;;;;;5031451;28;19925;-70
2022/03/10 07:42:45;;;;;;;;;;;4.30;97.70;;;;;;5025077;28;19929;-69
2022/03/10 07:45:12;;;;;;;;;;;4.40;97.60;;;;;;5027578;28;19932;-69
2022/03/10 07:47:39;;;;;;;;;;;4.60;97.30;;;;;;5032203;28;19925;-70
2022/03/10 07:50:08;;;;;;;;;;;4.70;97.00;;;;;;5025723;28;19933;-70
2022/03/10 07:52:34;;;;;;;;;;;4.90;96.90;;;;;;5030901;28;20380;-69
2022/03/10 07:55:02;;;;;;;;;;;5.00;96.40;;;;;;5027888;28;19964;-69
2022/03/10 07:57:28;;;;;;;;;;;5.20;96.20;;;;;;5026823;28;19932;-70
2022/03/10 07:59:55;;;;;;;;;;;6.10;95.90;;;;;;5029913;28;19938;-69
2022/03/10 08:02:22;;;;;;;;;;;8.00;90.50;;;;;;5022185;28;19926;-71
2022/03/10 08:04:49;;;;;;;;;;;10.30;75.00;;;;;;5024505;28;19933;-70
2022/03/10 08:07:17;;;;;;;;;;;12.00;58.80;;;;;;5026903;28;19978;-70
2022/03/10 08:09:44;;;;;;;;;;;13.60;52.90;;;;;;5023955;28;19925;-70
2022/03/10 08:12:10;;;;;;;;;;;14.60;46.90;;;;;;5026409;28;20373;-72
2022/03/10 08:14:37;;;;;;;;;;;14.50;42.10;;;;;;5027611;28;19940;-69
2022/03/10 08:17:04;;;;;;;;;;;15.50;40.50;;;;;;5029059;28;19933;-70
2022/03/10 08:19:31;;;;;;;;;;;15.50;36.00;;;;;;5027942;28;19948;-69
2022/03/10 08:21:58;;;;;;;;;;;16.30;35.20;;;;;;5028891;28;20029;-69
2022/03/10 08:24:27;;;;;;;;;;;16.00;31.50;;;;;;5026751;28;19929;-71
2022/03/10 08:26:54;;;;;;;;;;;15.90;32.40;;;;;;5021636;28;19925;-71
2022/03/10 08:29:24;;;;;;;;;;;15.80;32.40;;;;;;5024353;28;20281;-71
2022/03/10 08:31:50;;;;;;;;;;;16.40;31.50;;;;;;5026009;28;19925;-69
2022/03/10 08:34:19;;;;;;;;;;;17.00;29.30;;;;;;5031327;28;20298;-70
2022/03/10 08:36:46;;;;;;;;;;;16.80;30.00;;;;;;5030508;28;19929;-69
2022/03/10 08:39:13;;;;;;;;;;;18.00;27.00;;;;;;5030679;28;19925;-70
2022/03/10 08:41:41;;;;;;;;;;;17.00;28.70;;;;;;5029156;28;19925;-70
2022/03/10 08:44:07;;;;;;;;;;;16.90;28.10;;;;;;5028854;28;20016;-70
2022/03/10 08:46:34;;;;;;;;;;;17.20;27.40;;;;;;5026449;28;20023;-69
2022/03/10 08:49:01;;;;;;;;;;;17.20;27.40;;;;;;5029978;28;20349;-70
2022/03/10 08:51:28;;;;;;;;;;;16.40;28.30;;;;;;5029381;28;19937;-70
2022/03/10 08:53:55;;;;;;;;;;;16.40;28.10;;;;;;5029498;28;19925;-69
2022/03/10 08:56:21;;;;;;;;;;;16.60;28.70;;;;;;5027774;28;20395;-71
2022/03/10 08:58:49;;;;;;;;;;;17.40;27.60;;;;;;5028317;28;20529;-71
2022/03/10 09:01:16;;;;;;;;;;;18.00;26.60;;;;;;5029373;28;20003;-74
2022/03/10 09:03:43;;;;;;;;;;;17.50;27.00;;;;;;5027981;28;20012;-74
2022/03/10 09:06:13;;;;;;;;;;;18.80;25.00;;;;;;5029345;28;19925;-71
2022/03/10 09:08:42;;;;;;;;;;;19.90;23.50;;;;;;5030402;28;19956;-73
2022/03/10 09:11:09;;;;;;;;;;;20.20;21.80;;;;;;5029270;28;19926;-73
2022/03/10 09:13:35;;;;;;;;;;;20.00;21.30;;;;;;5030151;28;19935;-74
2022/03/10 09:16:05;;;;;;;;;;;20.30;20.90;;;;;;5028363;28;19935;-74
2022/03/10 09:18:32;;;;;;;;;;;19.60;21.20;;;;;;5026614;28;19925;-71
2022/03/10 09:20:59;;;;;;;;;;;19.60;21.50;;;;;;5029061;28;19930;-72
2022/03/10 09:23:25;;;;;;;;;;;20.70;20.00;;;;;;5027383;28;19933;-72
2022/03/10 09:25:52;;;;;;;;;;;20.20;19.80;;;;;;5027223;28;20295;-71
2022/03/10 09:28:19;;;;;;;;;;;21.00;19.30;;;;;;5028609;28;19932;-71
2022/03/10 09:30:46;;;;;;;;;;;20.50;19.70;;;;;;5027928;28;20023;-67
2022/03/10 09:33:14;;;;;;;;;;;20.40;21.30;;;;;;5028029;28;19988;-70
2022/03/10 09:35:40;;;;;;;;;;;21.40;20.20;;;;;;5029457;28;20410;-69
2022/03/10 09:38:08;;;;;;;;;;;21.20;18.70;;;;;;5028659;28;19972;-71
2022/03/10 09:40:34;;;;;;;;;;;20.40;19.60;;;;;;5028496;28;19948;-72
2022/03/10 09:43:01;;;;;;;;;;;20.30;20.20;;;;;;5027652;28;20047;-72
2022/03/10 09:45:29;;;;;;;;;;;20.50;20.50;;;;;;5029608;28;20387;-71
2022/03/10 09:47:56;;;;;;;;;;;20.30;21.30;;;;;;5026743;28;20406;-71
2022/03/10 09:50:24;;;;;;;;;;;18.60;23.10;;;;;;5028978;28;19925;-71
2022/03/10 09:52:51;;;;;;;;;;;16.50;28.50;;;;;;5024551;28;19948;-70
2022/03/10 09:55:18;;;;;;;;;;;14.30;37.00;;;;;;5027686;28;20020;-75
2022/03/10 09:57:46;;;;;;;;;;;12.90;41.40;;;;;;5024843;28;19925;-71
2022/03/10 10:00:14;;;;;;;;;;;12.70;42.50;;;;;;5030097;28;20299;-71
2022/03/10 10:02:41;;;;;;;;;;;12.80;42.60;;;;;;5028033;28;20000;-71
2022/03/10 10:05:21;;;;;;;;;;;12.60;43.00;;;;;;5018832;28;19929;-71
2022/03/10 10:08:01;;;;;;;;;;;12.50;43.40;;;;;;5031397;28;19933;-71
2022/03/10 10:10:28;;;;;;;;;;;12.90;42.40;;;;;;5030434;28;19925;-71
2022/03/10 10:12:55;;;;;;;;;;;13.20;41.00;;;;;;5031047;28;20406;-72
2022/03/10 10:15:21;;;;;;;;;;;13.30;40.70;;;;;;5031211;28;20403;-73
2022/03/10 10:17:55;;;;;;;;;;;13.00;41.50;;;;;;5031131;28;20024;-73
2022/03/10 10:20:22;;;;;;;;;;;13.10;42.40;;;;;;5024116;28;19925;-73
2022/03/10 10:22:48;;;;;;;;;;;13.20;41.90;;;;;;5028766;28;19929;-73
2022/03/10 10:25:19;;;;;;;;;;;13.10;42.10;;;;;;5029310;28;20464;-73
2022/03/10 10:27:47;;;;;;;;;;;13.10;42.40;;;;;;5028606;28;20364;-73
2022/03/10 10:30:13;;;;;;;;;;;13.00;42.50;;;;;;5029381;28;19975;-73
2022/03/10 10:32:46;;;;;;;;;;;13.20;42.00;;;;;;5027566;28;19968;-74
2022/03/10 10:35:14;;;;;;;;;;;13.30;41.50;;;;;;5033284;28;19925;-73
2022/03/10 10:37:44;;;;;;;;;;;13.30;41.00;;;;;;5032126;28;20304;-73
2022/03/10 10:40:11;;;;;;;;;;;13.30;41.10;;;;;;5032507;28;19979;-71
2022/03/10 10:42:40;;;;;;;;;;;13.50;41.10;;;;;;5032741;28;20363;-71
2022/03/10 10:45:21;;;;;;;;;;;13.50;41.10;;;;;;5030805;28;19932;-71
2022/03/10 10:47:58;;;;;;;;;;;13.60;41.40;;;;;;5031338;28;19929;-71
2022/03/10 10:50:24;;;;;;;;;;;13.70;40.80;;;;;;5028226;28;19925;-70
2022/03/10 10:52:51;;;;;;;;;;;13.60;41.30;;;;;;5032702;28;20009;-71
2022/03/10 10:55:18;;;;;;;;;;;13.70;41.40;;;;;;5031035;28;20336;-71
2022/03/10 10:57:47;;;;;;;;;;;13.80;40.40;;;;;;5030769;28;19929;-70
2022/03/10 11:00:14;;;;;;;;;;;13.90;40.50;;;;;;5031742;28;20380;-70
2022/03/10 11:02:44;;;;;;;;;;;14.00;40.40;;;;;;5031759;28;20334;-70
2022/03/10 11:05:14;;;;;;;;;;;14.10;39.70;;;;;;5033329;28;20027;-70
2022/03/10 11:07:41;;;;;;;;;;;14.20;38.50;;;;;;5032701;28;20288;-69
2022/03/10 11:10:09;;;;;;;;;;;14.30;37.90;;;;;;5031804;28;20012;-69
2022/03/10 11:12:39;;;;;;;;;;;14.40;36.90;;;;;;5027758;28;19933;-70
2022/03/10 11:15:08;;;;;;;;;;;14.50;37.50;;;;;;5030484;28;19931;-70
2022/03/10 11:17:35;;;;;;;;;;;14.60;37.90;;;;;;5031554;28;20639;-70
2022/03/10 11:20:03;;;;;;;;;;;14.70;37.90;;;;;;5025321;28;19961;-70
2022/03/10 11:22:34;;;;;;;;;;;14.60;37.30;;;;;;5028795;28;19925;-70
2022/03/10 11:25:09;;;;;;;;;;;14.70;38.00;;;;;;5021740;28;19925;-70
2022/03/10 11:27:37;;;;;;;;;;;14.70;37.00;;;;;;5026379;28;19950;-70
2022/03/10 11:30:06;;;;;;;;;;;14.90;36.50;;;;;;5025336;28;19935;-70
2022/03/10 11:32:34;;;;;;;;;;;14.90;34.90;;;;;;5030632;28;19932;-69
2022/03/10 11:35:02;;;;;;;;;;;14.80;34.90;;;;;;5031808;28;20260;-69
2022/03/10 11:37:47;;;;;;;;;;;14.90;34.60;;;;;;5030015;28;19935;-70
2022/03/10 11:40:15;;;;;;;;;;;14.90;34.50;;;;;;5032947;28;20348;-70
2022/03/10 11:42:42;;;;;;;;;;;14.90;34.90;;;;;;5028184;28;19931;-70
2022/03/10 11:45:10;;;;;;;;;;;15.00;34.30;;;;;;5030473;28;20016;-70
2022/03/10 11:47:38;;;;;;;;;;;15.00;34.10;;;;;;5028764;28;19925;-70
2022/03/10 11:50:23;;;;;;;;;;;15.00;34.40;;;;;;5031332;28;19931;-70
2022/03/10 11:52:52;;;;;;;;;;;15.00;34.10;;;;;;5026183;28;19933;-70
2022/03/10 11:55:19;;;;;;;;;;;15.10;34.40;;;;;;5025282;28;19940;-71
2022/03/10 11:58:04;;;;;;;;;;;15.10;34.10;;;;;;5026528;28;19964;-70
2022/03/10 12:00:46;;;;;;;;;;;15.10;33.70;;;;;;5031242;28;19932;-70
2022/03/10 12:03:20;;;;;;;;;;;15.20;34.00;;;;;;5033134;28;19925;-70
2022/03/10 12:05:55;;;;;;;;;;;15.50;34.00;;;;;;5020510;28;20371;-70
2022/03/10 12:08:22;;;;;;;;;;;15.50;32.70;;;;;;5024002;28;20245;-70
2022/03/10 12:10:49;;;;;;;;;;;15.40;33.20;;;;;;5028658;28;19929;-70
2022/03/10 12:13:23;;;;;;;;;;;15.50;33.20;;;;;;5030916;28;19925;-70
2022/03/10 12:15:50;;;;;;;;;;;15.50;32.40;;;;;;5028455;28;19925;-70
2022/03/10 12:18:18;;;;;;;;;;;15.80;32.50;;;;;;5030875;28;19933;-70
2022/03/10 12:20:47;;;;;;;;;;;15.80;31.50;;;;;;5025853;28;19925;-69
2022/03/10 12:23:15;;;;;;;;;;;15.80;32.20;;;;;;5022209;28;19925;-70
2022/03/10 12:25:43;;;;;;;;;;;15.90;32.80;;;;;;5028645;28;19929;-70
2022/03/10 12:28:10;;;;;;;;;;;16.00;32.50;;;;;;5031139;28;19929;-70
2022/03/10 12:30:40;;;;;;;;;;;16.10;32.00;;;;;;5029771;28;20204;-70
2022/03/10 12:33:07;;;;;;;;;;;16.00;32.20;;;;;;5031237;28;20015;-70
2022/03/10 12:35:35;;;;;;;;;;;16.00;32.70;;;;;;5025908;28;20280;-68
2022/03/10 12:38:03;;;;;;;;;;;16.20;32.50;;;;;;5027952;28;20361;-71
2022/03/10 12:40:31;;;;;;;;;;;16.40;32.40;;;;;;5030840;28;19925;-67
2022/03/10 12:42:59;;;;;;;;;;;16.40;32.40;;;;;;5029114;28;19932;-69
2022/03/10 12:45:26;;;;;;;;;;;16.50;32.10;;;;;;5031055;28;19925;-69
2022/03/10 12:47:55;;;;;;;;;;;16.60;31.60;;;;;;5027081;28;20011;-68
2022/03/10 12:50:22;;;;;;;;;;;16.50;32.30;;;;;;5030395;28;19932;-67
2022/03/10 12:52:49;;;;;;;;;;;16.60;31.70;;;;;;5029442;28;20016;-68
2022/03/10 12:55:25;;;;;;;;;;;16.60;31.80;;;;;;5028378;28;19925;-69
2022/03/10 12:57:51;;;;;;;;;;;16.60;32.00;;;;;;5026151;28;19956;-71
2022/03/10 13:00:19;;;;;;;;;;;16.50;32.30;;;;;;5031274;28;19925;-71
2022/03/10 13:02:46;;;;;;;;;;;16.50;32.00;;;;;;5029096;28;19925;-69
2022/03/10 13:05:13;;;;;;;;;;;16.50;32.70;;;;;;5029739;28;19925;-70
2022/03/10 13:07:40;;;;;;;;;;;16.80;32.20;;;;;;5027625;28;20453;-68
2022/03/10 13:10:09;;;;;;;;;;;17.00;31.80;;;;;;5029712;28;19956;-69
2022/03/10 13:12:39;;;;;;;;;;;16.70;31.50;;;;;;5025393;28;19925;-69
2022/03/10 13:15:06;;;;;;;;;;;16.50;32.00;;;;;;5030723;28;19925;-69
2022/03/10 13:17:34;;;;;;;;;;;16.50;32.30;;;;;;5026164;28;19925;-70
2022/03/10 13:20:01;;;;;;;;;;;16.60;32.80;;;;;;5030887;28;19948;-69
2022/03/10 13:22:27;;;;;;;;;;;16.80;32.50;;;;;;5027836;28;20471;-69
2022/03/10 13:24:54;;;;;;;;;;;17.00;31.40;;;;;;5028604;28;19932;-70
2022/03/10 13:27:21;;;;;;;;;;;17.00;31.00;;;;;;5028028;28;20012;-70
2022/03/10 13:29:52;;;;;;;;;;;17.00;30.90;;;;;;5027106;28;19931;-70
2022/03/10 13:32:19;;;;;;;;;;;16.90;31.60;;;;;;5025562;28;19925;-70
2022/03/10 13:34:46;;;;;;;;;;;16.90;30.30;;;;;;5025255;28;19925;-70
2022/03/10 13:37:13;;;;;;;;;;;17.00;31.10;;;;;;5028522;28;19925;-69
2022/03/10 13:39:41;;;;;;;;;;;17.10;30.30;;;;;;5029937;28;19976;-69
2022/03/10 13:42:09;;;;;;;;;;;17.10;30.00;;;;;;5028962;28;19925;-70
2022/03/10 13:44:37;;;;;;;;;;;17.10;29.70;;;;;;5030224;28;19971;-70
2022/03/10 13:47:06;;;;;;;;;;;17.20;29.70;;;;;;5023640;28;19933;-70
2022/03/10 13:49:40;;;;;;;;;;;17.40;29.70;;;;;;5038262;28;20757;-69
2022/03/10 13:52:10;;;;;;;;;;;17.40;29.40;;;;;;5027822;28;19925;-70
2022/03/10 13:54:38;;;;;;;;;;;17.30;29.60;;;;;;5020165;28;19979;-69
2022/03/10 13:57:05;;;;;;;;;;;17.30;29.80;;;;;;5027681;28;20021;-69
2022/03/10 13:59:31;;;;;;;;;;;17.30;29.70;;;;;;5028885;28;20027;-70
2022/03/10 14:01:58;;;;;;;;;;;17.20;30.00;;;;;;5026186;28;19931;-70
2022/03/10 14:04:35;;;;;;;;;;;17.20;29.70;;;;;;5030021;28;20062;-70
2022/03/10 14:07:07;;;;;;;;;;;17.20;29.80;;;;;;5027025;28;19933;-70
2022/03/10 14:09:41;;;;;;;;;;;17.20;29.90;;;;;;5029356;28;19987;-71
2022/03/10 14:12:14;;;;;;;;;;;17.30;30.00;;;;;;5027616;28;19932;-70
2022/03/10 14:14:43;;;;;;;;;;;17.40;29.70;;;;;;5029262;28;19956;-70
2022/03/10 14:17:10;;;;;;;;;;;17.50;29.90;;;;;;5022442;28;20096;-70
2022/03/10 14:19:38;;;;;;;;;;;17.60;29.10;;;;;;5022759;28;20028;-68
2022/03/10 14:22:05;;;;;;;;;;;17.70;28.80;;;;;;5027967;28;20021;-69
2022/03/10 14:24:32;;;;;;;;;;;17.60;28.40;;;;;;5028980;28;19925;-70
2022/03/10 14:27:16;;;;;;;;;;;17.40;28.90;;;;;;5027558;28;19971;-69
2022/03/10 14:29:44;;;;;;;;;;;17.30;29.10;;;;;;5023733;28;19925;-68
2022/03/10 14:32:12;;;;;;;;;;;17.20;29.50;;;;;;5025070;28;19929;-69